Time;durP1;ratioP1;P1;durP2;ratioP2;P2;SDS_P1;SDS_P2;PMS_P1;PMS_P2;Temp;Humidity;BMP_temperature;BMP_pressure;BME280_temperature;BME280_humidity;BME280_pressure;Samples;Min_cycle;Max_cycle;Signal;HPM_P1;HPM_P2
2023/05/30 00:01:25;;;;;;;6.13;4.23;;;;;;;14.18;100.00;96412.44;5019986;27;102198;-61
2023/05/30 00:03:52;;;;;;;5.23;4.53;;;;;;;14.23;100.00;96417.81;5021421;28;105150;-61
2023/05/30 00:06:19;;;;;;;5.60;4.27;;;;;;;13.96;100.00;96409.28;5031791;27;101763;-61
2023/05/30 00:08:47;;;;;;;6.27;4.40;;;;;;;13.60;100.00;96411.19;5027800;28;105687;-61
2023/05/30 00:11:14;;;;;;;5.23;4.20;;;;;;;13.58;100.00;96409.88;5019707;28;105309;-61
2023/05/30 00:13:43;;;;;;;4.27;3.87;;;;;;;13.57;100.00;96422.41;5006924;28;102043;-61
2023/05/30 00:16:12;;;;;;;4.27;3.67;;;;;;;13.29;100.00;96416.78;5009178;28;102206;-61
2023/05/30 00:18:39;;;;;;;7.40;4.50;;;;;;;13.27;100.00;96413.59;5008360;28;103354;-61
2023/05/30 00:21:08;;;;;;;4.87;4.20;;;;;;;13.43;100.00;96416.03;5004686;28;101914;-61
2023/05/30 00:23:37;;;;;;;4.43;3.90;;;;;;;13.25;100.00;96418.41;5002523;28;102382;-61
2023/05/30 00:26:08;;;;;;;7.27;3.93;;;;;;;13.36;100.00;96412.00;5020259;28;102861;-61
2023/05/30 00:28:35;;;;;;;5.03;4.53;;;;;;;13.36;100.00;96409.34;5023427;27;102370;-61
2023/05/30 00:31:02;;;;;;;5.10;4.60;;;;;;;13.33;100.00;96404.50;5015143;28;105323;-61
2023/05/30 00:33:31;;;;;;;4.60;4.10;;;;;;;13.33;100.00;96407.19;5032293;27;101919;-61
2023/05/30 00:35:58;;;;;;;4.67;4.23;;;;;;;13.34;100.00;96411.44;5030311;28;105251;-61
2023/05/30 00:38:25;;;;;;;4.77;3.67;;;;;;;13.29;100.00;96406.09;5031521;27;102506;-61
2023/05/30 00:40:52;;;;;;;6.00;4.80;;;;;;;13.27;100.00;96417.06;5028036;28;102088;-61
2023/05/30 00:43:21;;;;;;;5.63;4.60;;;;;;;13.12;100.00;96418.91;5010769;28;103960;-61
2023/05/30 00:45:52;;;;;;;5.60;4.20;;;;;;;13.14;100.00;96411.44;5010353;28;105901;-61
2023/05/30 00:48:19;;;;;;;4.70;3.93;;;;;;;12.96;100.00;96418.09;5014079;28;102168;-61
2023/05/30 00:50:48;;;;;;;6.37;4.33;;;;;;;12.95;100.00;96416.47;5024453;28;102828;-61
2023/05/30 00:53:16;;;;;;;5.60;4.80;;;;;;;12.86;100.00;96423.38;5030158;28;102386;-61
2023/05/30 00:55:43;;;;;;;4.67;4.13;;;;;;;12.88;100.00;96415.94;5032033;27;102299;-61
2023/05/30 00:58:10;;;;;;;5.33;4.07;;;;;;;13.03;100.00;96420.50;5031497;27;102531;-61
2023/05/30 01:00:40;;;;;;;5.57;4.37;;;;;;;13.04;100.00;96427.47;5030572;28;101909;-61
2023/05/30 01:03:08;;;;;;;4.57;4.07;;;;;;;12.95;100.00;96421.81;5016150;28;105246;-61
2023/05/30 01:05:35;;;;;;;5.20;4.50;;;;;;;12.84;100.00;96422.84;5030091;28;104223;-61
2023/05/30 01:08:02;;;;;;;5.33;4.00;;;;;;;12.87;100.00;96432.19;5031144;28;101953;-61
2023/05/30 01:10:32;;;;;;;4.87;4.10;;;;;;;12.59;100.00;96419.31;5029587;28;105627;-61
2023/05/30 01:13:11;;;;;;;4.63;4.10;;;;;;;12.42;100.00;96418.72;5029932;28;102420;-61
2023/05/30 01:15:46;;;;;;;4.20;3.80;;;;;;;12.54;100.00;96417.41;5029688;28;105523;-61
2023/05/30 01:18:20;;;;;;;7.07;4.47;;;;;;;12.48;100.00;96421.13;4989810;28;105695;-61
2023/05/30 01:20:50;;;;;;;5.47;4.97;;;;;;;12.56;100.00;96419.81;4992744;28;101874;-61
2023/05/30 01:23:41;;;;;;;5.53;4.27;;;;;;;12.55;100.00;96411.03;5010003;28;105117;-61
2023/05/30 01:26:23;;;;;;;6.33;4.63;;;;;;;12.50;100.00;96423.53;5012031;28;102561;-61
2023/05/30 01:28:54;;;;;;;4.77;4.27;;;;;;;12.47;100.00;96416.03;5017807;28;102041;-61
2023/05/30 01:31:23;;;;;;;4.47;4.07;;;;;;;12.51;100.00;96417.13;5010649;28;105493;-61
2023/05/30 01:33:50;;;;;;;7.10;4.33;;;;;;;12.54;100.00;96404.06;5032741;27;106075;-61
2023/05/30 01:36:21;;;;;;;5.80;4.50;;;;;;;12.55;100.00;96404.88;5017605;28;105759;-61
2023/05/30 01:38:48;;;;;;;4.87;3.83;;;;;;;12.40;100.00;96410.16;5010501;28;101878;-61
2023/05/30 01:41:21;;;;;;;4.83;4.23;;;;;;;12.17;100.00;96410.59;5009923;28;102028;-61
2023/05/30 01:43:55;;;;;;;4.80;4.30;;;;;;;12.27;100.00;96416.75;5009884;28;106308;-61
2023/05/30 01:46:33;;;;;;;4.83;4.10;;;;;;;12.27;100.00;96405.31;5023010;28;105838;-61
2023/05/30 01:49:20;;;;;;;4.47;4.07;;;;;;;12.18;100.00;96402.34;5031282;27;101775;-61
2023/05/30 01:51:53;;;;;;;5.03;3.93;;;;;;;12.25;100.00;96402.09;5027968;28;105145;-61
2023/05/30 01:54:22;;;;;;;5.07;4.30;;;;;;;11.95;100.00;96407.28;5029015;28;105388;-61
2023/05/30 01:56:53;;;;;;;6.07;4.57;;;;;;;11.80;100.00;96409.84;5012972;28;101990;-61
2023/05/30 01:59:25;;;;;;;4.60;4.13;;;;;;;11.67;100.00;96412.97;5020384;28;105519;-61
2023/05/30 02:01:54;;;;;;;8.83;5.03;;;;;;;11.67;100.00;96416.41;5009733;28;101893;-61
2023/05/30 02:04:21;;;;;;;5.23;4.70;;;;;;;11.75;100.00;96418.63;5009407;28;104785;-61
2023/05/30 02:06:48;;;;;;;9.10;4.60;;;;;;;11.71;100.00;96417.50;5025442;28;105118;-61
2023/05/30 02:09:16;;;;;;;6.30;4.53;;;;;;;11.82;100.00;96418.41;5012191;28;102005;-61
2023/05/30 02:11:43;;;;;;;6.00;4.80;;;;;;;11.82;100.00;96421.06;5027402;28;105108;-61
2023/05/30 02:14:10;;;;;;;5.30;4.80;;;;;;;11.89;100.00;96419.75;5010003;28;102884;-61
2023/05/30 02:16:39;;;;;;;5.93;4.50;;;;;;;11.86;100.00;96422.94;5014343;28;101918;-61
2023/05/30 02:19:08;;;;;;;5.03;4.47;;;;;;;11.95;100.00;96417.94;5008298;28;105499;-61
2023/05/30 02:21:35;;;;;;;4.93;4.43;;;;;;;11.94;100.00;96416.34;5009278;28;101973;-61
2023/05/30 02:24:02;;;;;;;5.83;5.10;;;;;;;11.78;100.00;96417.31;5009742;28;105232;-61
2023/05/30 02:26:29;;;;;;;5.97;4.40;;;;;;;11.73;100.00;96426.03;5008587;28;105848;-61
2023/05/30 02:28:57;;;;;;;5.60;4.90;;;;;;;11.86;100.00;96417.63;5012777;28;102034;-61
2023/05/30 02:31:24;;;;;;;5.33;4.50;;;;;;;11.96;100.00;96419.53;5009046;28;104625;-61
2023/05/30 02:33:53;;;;;;;5.23;4.73;;;;;;;11.98;100.00;96417.41;5008420;28;105772;-61
2023/05/30 02:36:20;;;;;;;5.17;4.67;;;;;;;11.96;100.00;96415.03;5009178;28;101912;-61
2023/05/30 02:38:47;;;;;;;4.83;4.33;;;;;;;12.03;100.00;96414.78;5011969;28;105546;-61
2023/05/30 02:41:14;;;;;;;5.70;4.70;;;;;;;11.95;100.00;96409.94;5010405;28;101851;-61
2023/05/30 02:43:41;;;;;;;5.57;4.67;;;;;;;12.01;100.00;96408.91;5008915;28;104843;-61
2023/05/30 02:46:09;;;;;;;4.90;4.37;;;;;;;11.95;100.00;96413.38;5008219;28;105042;-61
2023/05/30 02:48:40;;;;;;;4.90;4.40;;;;;;;11.96;100.00;96415.03;5008773;28;102318;-61
2023/05/30 02:51:10;;;;;;;4.97;4.47;;;;;;;11.92;100.00;96405.94;5008784;28;105358;-61
2023/05/30 02:53:37;;;;;;;4.87;4.40;;;;;;;11.65;100.00;96417.72;5007947;28;105540;-61
2023/05/30 02:56:05;;;;;;;5.80;4.47;;;;;;;11.51;100.00;96417.31;5008668;28;102349;-61
2023/05/30 02:58:41;;;;;;;5.43;4.00;;;;;;;11.62;100.00;96418.25;5006779;28;102233;-61
2023/05/30 03:01:28;;;;;;;7.33;4.53;;;;;;;11.54;100.00;96416.03;5008767;28;102964;-61
2023/05/30 03:03:55;;;;;;;4.77;4.30;;;;;;;11.46;100.00;96424.50;5026906;28;104615;-61
2023/05/30 03:06:37;;;;;;;4.70;4.30;;;;;;;11.48;100.00;96427.69;5012627;28;104133;-61
2023/05/30 03:09:15;;;;;;;5.97;4.53;;;;;;;11.54;100.00;96427.47;5012679;28;102113;-61
2023/05/30 03:11:42;;;;;;;5.27;4.77;;;;;;;11.50;100.00;96425.59;5009987;28;105002;-61
2023/05/30 03:14:10;;;;;;;6.07;4.63;;;;;;;11.33;100.00;96431.03;5025937;28;105144;-61
2023/05/30 03:16:39;;;;;;;5.03;4.57;;;;;;;11.49;100.00;96434.63;4988584;28;101989;-61
2023/05/30 03:19:07;;;;;;;5.10;4.60;;;;;;;11.45;100.00;96433.53;4988331;28;104920;-61
2023/05/30 03:21:37;;;;;;;5.23;4.73;;;;;;;11.47;100.00;96440.22;5004443;28;105346;-61
2023/05/30 03:24:06;;;;;;;6.80;4.87;;;;;;;11.48;100.00;96435.69;5030999;28;102065;-61
2023/05/30 03:26:39;;;;;;;7.40;5.10;;;;;;;11.53;100.00;96441.06;5026737;28;105154;-61
2023/05/30 03:29:08;;;;;;;5.73;5.13;;;;;;;11.49;100.00;96445.28;4988138;28;101990;-61
2023/05/30 03:31:36;;;;;;;5.10;4.60;;;;;;;11.48;100.00;96449.81;4989339;28;104803;-61
2023/05/30 03:34:04;;;;;;;7.03;4.70;;;;;;;11.55;100.00;96449.59;5020691;28;105201;-61
2023/05/30 03:36:31;;;;;;;8.87;4.90;;;;;;;11.59;100.00;96440.06;5028142;28;101992;-61
2023/05/30 03:39:00;;;;;;;5.90;4.70;;;;;;;11.61;100.00;96438.75;4987917;28;105419;-61
2023/05/30 03:41:27;;;;;;;7.20;4.87;;;;;;;11.68;100.00;96434.03;5001554;28;101811;-61
2023/05/30 03:43:54;;;;;;;7.17;4.90;;;;;;;11.75;100.00;96439.94;5008207;28;101791;-61
2023/05/30 03:46:22;;;;;;;5.00;4.50;;;;;;;11.74;100.00;96435.66;5011920;28;104620;-61
2023/05/30 03:48:49;;;;;;;6.90;5.00;;;;;;;11.82;100.00;96442.38;5010458;28;102517;-61
2023/05/30 03:51:17;;;;;;;5.03;4.53;;;;;;;11.83;100.00;96447.44;5008327;28;104968;-61
2023/05/30 03:53:45;;;;;;;5.40;4.90;;;;;;;11.88;100.00;96447.47;5007186;28;105396;-61
2023/05/30 03:56:13;;;;;;;6.37;4.93;;;;;;;11.82;100.00;96451.16;5011555;28;101899;-61
2023/05/30 03:58:40;;;;;;;5.33;4.30;;;;;;;11.87;100.00;96461.84;5031728;28;105508;-61
2023/05/30 04:01:09;;;;;;;5.77;5.17;;;;;;;11.90;100.00;96463.19;5029989;28;104067;-61
2023/05/30 04:03:37;;;;;;;6.83;5.10;;;;;;;11.96;100.00;96475.50;5032897;27;101835;-61
2023/05/30 04:06:05;;;;;;;10.50;5.30;;;;;;;12.06;100.00;96475.56;5016225;28;104634;-61
2023/05/30 04:08:32;;;;;;;8.23;5.83;;;;;;;12.11;100.00;96475.59;5013992;28;105592;-61
2023/05/30 04:10:59;;;;;;;15.93;10.27;;;;;;;12.12;100.00;96479.88;5024531;28;105535;-61
2023/05/30 04:13:28;;;;;;;19.97;12.17;;;;;;;11.92;100.00;96485.06;5029738;28;105744;-61
2023/05/30 04:15:55;;;;;;;14.43;9.43;;;;;;;12.06;100.00;96483.56;5031390;27;101803;-61
2023/05/30 04:18:22;;;;;;;12.33;8.20;;;;;;;12.14;100.00;96477.75;5031147;28;104789;-61
2023/05/30 04:20:49;;;;;;;10.03;7.53;;;;;;;12.16;100.00;96488.97;5031526;27;102508;-61
2023/05/30 04:23:15;;;;;;;10.03;6.03;;;;;;;12.03;100.00;96484.88;5032098;27;101982;-61
2023/05/30 04:25:44;;;;;;;6.67;5.00;;;;;;;11.96;100.00;96484.31;5021754;28;105134;-61
2023/05/30 04:28:16;;;;;;;8.70;5.40;;;;;;;12.12;100.00;96493.19;5011383;28;105663;-61
2023/05/30 04:30:48;;;;;;;7.67;4.40;;;;;;;12.23;100.00;96490.34;5009367;28;105249;-61
2023/05/30 04:33:18;;;;;;;8.37;5.23;;;;;;;12.21;100.00;96499.66;5010701;28;105123;-61
2023/05/30 04:35:47;;;;;;;7.00;4.83;;;;;;;12.35;100.00;96493.63;5010715;28;102024;-61
2023/05/30 04:38:19;;;;;;;7.10;4.73;;;;;;;12.52;100.00;96493.41;5022579;28;105185;-61
2023/05/30 04:40:50;;;;;;;6.80;5.50;;;;;;;12.68;100.00;96495.09;5014183;28;105188;-61
2023/05/30 04:43:19;;;;;;;6.40;4.93;;;;;;;12.72;100.00;96501.53;5030583;28;102415;-61
2023/05/30 04:45:50;;;;;;;6.40;5.50;;;;;;;12.75;100.00;96501.00;5032063;27;102480;-61
2023/05/30 04:48:17;;;;;;;8.73;5.27;;;;;;;12.81;100.00;96502.63;5010561;28;105217;-61
2023/05/30 04:50:46;;;;;;;6.70;5.47;;;;;;;12.97;100.00;96507.78;4997441;28;101961;-61
2023/05/30 04:53:15;;;;;;;6.57;5.47;;;;;;;12.93;100.00;96505.88;5029514;28;102457;-61
2023/05/30 04:55:43;;;;;;;7.10;5.27;;;;;;;12.93;100.00;96511.22;5030410;28;101956;-61
2023/05/30 04:58:10;;;;;;;6.77;5.43;;;;;;;12.92;100.00;96506.94;5011633;28;105205;-61
2023/05/30 05:00:38;;;;;;;6.83;5.20;;;;;;;12.65;100.00;96501.75;5009368;28;105779;-61
2023/05/30 05:03:07;;;;;;;5.73;5.00;;;;;;;12.92;100.00;96506.94;5029199;28;102056;-61
2023/05/30 05:05:35;;;;;;;7.20;5.60;;;;;;;12.90;100.00;96507.19;5031701;27;102309;-61
2023/05/30 05:08:02;;;;;;;5.63;5.00;;;;;;;12.77;100.00;96506.88;5028160;27;105675;-61
2023/05/30 05:10:29;;;;;;;5.83;5.03;;;;;;;12.74;100.00;96499.38;5027310;28;102626;-61
2023/05/30 05:12:56;;;;;;;6.60;5.37;;;;;;;12.50;100.00;96500.88;5034813;27;102363;-61
2023/05/30 05:15:23;;;;;;;7.73;5.80;;;;;;;12.31;100.00;96502.41;5031177;27;102792;-61
2023/05/30 05:17:51;;;;;;;6.03;5.43;;;;;;;12.39;100.00;96504.56;5011856;27;102365;-61
2023/05/30 05:20:20;;;;;;;6.90;5.43;;;;;;;12.67;100.00;96517.50;5009547;28;105382;-60
2023/05/30 05:22:47;;;;;;;6.30;5.43;;;;;;;12.86;100.00;96514.13;5009946;28;102025;-62
2023/05/30 05:25:15;;;;;;;5.83;5.20;;;;;;;12.82;100.00;96513.03;5011549;28;102278;-62
2023/05/30 05:27:42;;;;;;;5.97;5.37;;;;;;;13.13;100.00;96514.78;5011180;28;102538;-62
2023/05/30 05:30:10;;;;;;;5.80;4.70;;;;;;;13.16;100.00;96500.09;5022597;28;101828;-62
2023/05/30 05:32:38;;;;;;;8.20;5.00;;;;;;;13.46;100.00;96506.28;5028854;28;104577;-62
2023/05/30 05:35:08;;;;;;;7.00;5.23;;;;;;;13.69;100.00;96502.31;5034448;28;102551;-62
2023/05/30 05:37:36;;;;;;;6.37;4.90;;;;;;;13.66;100.00;96500.16;5029810;27;102378;-62
2023/05/30 05:40:05;;;;;;;8.07;5.23;;;;;;;13.59;100.00;96499.63;5030755;27;102511;-62
2023/05/30 05:42:33;;;;;;;6.23;4.90;;;;;;;13.55;100.00;96506.56;5017747;27;101838;-62
2023/05/30 05:45:00;;;;;;;5.13;4.63;;;;;;;13.58;100.00;96503.38;5011207;28;102314;-62
2023/05/30 05:47:27;;;;;;;6.40;4.93;;;;;;;13.59;100.00;96508.47;5024893;28;105293;-62
2023/05/30 05:49:54;;;;;;;6.73;5.20;;;;;;;13.60;100.00;96510.06;5029793;28;102036;-62
2023/05/30 05:52:21;;;;;;;6.80;5.00;;;;;;;13.84;100.00;96507.69;5030909;27;102778;-62
2023/05/30 05:54:54;;;;;;;6.87;5.27;;;;;;;13.67;100.00;96507.94;5030296;28;102636;-62
2023/05/30 05:57:21;;;;;;;5.73;4.73;;;;;;;13.79;100.00;96519.16;5032979;28;102134;-62
2023/05/30 05:59:48;;;;;;;7.03;5.50;;;;;;;13.92;100.00;96515.16;5030563;27;102638;-62
2023/05/30 06:02:15;;;;;;;7.40;5.17;;;;;;;14.04;100.00;96510.31;5031220;27;102078;-62
2023/05/30 06:04:41;;;;;;;7.47;5.23;;;;;;;14.40;100.00;96522.63;5030734;27;102283;-62
2023/05/30 06:07:09;;;;;;;8.07;5.20;;;;;;;14.54;100.00;96518.28;5030579;27;102903;-62
2023/05/30 06:09:36;;;;;;;7.20;5.33;;;;;;;14.74;100.00;96518.25;5031077;27;101826;-62
2023/05/30 06:12:05;;;;;;;7.27;5.20;;;;;;;14.90;100.00;96519.78;5029572;28;102980;-62
2023/05/30 06:14:32;;;;;;;8.83;4.97;;;;;;;15.01;100.00;96516.00;5029644;27;102553;-62
2023/05/30 06:16:59;;;;;;;7.20;5.20;;;;;;;15.15;100.00;96511.66;5029528;28;101843;-62
2023/05/30 06:19:26;;;;;;;6.30;4.90;;;;;;;15.28;100.00;96517.22;5032826;27;102307;-60
2023/05/30 06:21:53;;;;;;;8.87;5.67;;;;;;;15.26;100.00;96515.88;5030870;27;102299;-60
2023/05/30 06:24:20;;;;;;;7.43;5.17;;;;;;;15.68;100.00;96518.84;5030800;27;102529;-61
2023/05/30 06:26:47;;;;;;;6.10;4.83;;;;;;;15.56;100.00;96521.06;5030118;27;102546;-62
2023/05/30 06:29:16;;;;;;;5.87;4.67;;;;;;;15.50;100.00;96522.19;5029224;28;101914;-62
2023/05/30 06:31:43;;;;;;;7.80;5.03;;;;;;;15.89;100.00;96528.34;5029379;28;105343;-62
2023/05/30 06:34:10;;;;;;;6.37;4.30;;;;;;;16.22;100.00;96530.22;5029977;27;103038;-62
2023/05/30 06:36:37;;;;;;;6.83;4.93;;;;;;;16.48;100.00;96531.63;5028918;28;101914;-62
2023/05/30 06:39:04;;;;;;;6.63;4.60;;;;;;;16.26;100.00;96528.56;5031885;28;105342;-62
2023/05/30 06:41:34;;;;;;;8.80;4.90;;;;;;;16.17;100.00;96530.25;5030115;27;101857;-62
2023/05/30 06:44:01;;;;;;;5.10;4.60;;;;;;;16.31;100.00;96532.03;5030582;28;103026;-62
2023/05/30 06:46:29;;;;;;;8.47;4.87;;;;;;;16.49;100.00;96527.84;5030188;27;103111;-62
2023/05/30 06:48:56;;;;;;;7.87;5.37;;;;;;;16.31;100.00;96529.34;5030266;27;101831;-62
2023/05/30 06:51:23;;;;;;;7.07;5.30;;;;;;;16.32;100.00;96535.50;5030403;28;102599;-62
2023/05/30 06:53:50;;;;;;;8.23;5.40;;;;;;;16.22;100.00;96535.56;5028035;28;105665;-62
2023/05/30 06:56:17;;;;;;;7.10;5.43;;;;;;;16.58;100.00;96534.19;5028730;28;101843;-62
2023/05/30 06:58:44;;;;;;;6.97;5.07;;;;;;;16.66;100.00;96533.56;5028782;28;105973;-62
2023/05/30 07:01:11;;;;;;;6.87;5.20;;;;;;;16.77;100.00;96530.50;5033111;27;102875;-62
2023/05/30 07:03:40;;;;;;;8.17;5.63;;;;;;;16.83;100.00;96536.59;5028719;28;105098;-62
2023/05/30 07:06:07;;;;;;;6.13;4.87;;;;;;;17.10;100.00;96531.44;5028036;28;105874;-62
2023/05/30 07:08:34;;;;;;;7.03;4.50;;;;;;;17.30;100.00;96531.19;5028858;28;101948;-61
2023/05/30 07:11:01;;;;;;;7.27;4.83;;;;;;;17.36;100.00;96528.16;5029805;27;102298;-62
2023/05/30 07:13:28;;;;;;;8.13;5.20;;;;;;;17.73;100.00;96524.72;5019801;28;105099;-63
2023/05/30 07:31:25;;;;;;;;;;;;;;;;;;;;;
2023/05/30 07:33:54;;;;;;;5.37;4.57;;;;;;;18.77;100.00;96522.16;5009382;28;102149;-62
2023/05/30 07:36:21;;;;;;;7.27;4.53;;;;;;;18.53;100.00;96523.41;5011472;28;102598;-62
2023/05/30 07:38:48;;;;;;;6.67;4.93;;;;;;;18.62;100.00;96524.31;5010601;28;105049;-63
2023/05/30 07:41:14;;;;;;;7.70;5.30;;;;;;;18.81;100.00;96525.03;5011101;28;102277;-63
2023/05/30 07:43:43;;;;;;;7.13;4.23;;;;;;;19.15;100.00;96528.13;5011552;28;105249;-70
2023/05/30 07:46:10;;;;;;;6.30;4.60;;;;;;;19.46;100.00;96526.44;5010896;28;103989;-61
2023/05/30 07:48:37;;;;;;;5.60;4.87;;;;;;;18.96;100.00;96533.63;5010859;28;102113;-62
2023/05/30 07:51:06;;;;;;;6.70;4.47;;;;;;;19.08;100.00;96531.22;5013036;28;104876;-63
2023/05/30 07:53:33;;;;;;;7.73;4.87;;;;;;;18.71;100.00;96526.03;5010976;28;102017;-62
2023/05/30 07:56:00;;;;;;;7.60;4.33;;;;;;;19.03;100.00;96535.91;5010822;28;105094;-63
2023/05/30 07:58:27;;;;;;;7.83;4.77;;;;;;;19.55;100.00;96532.69;5011592;28;103202;-63
2023/05/30 08:00:54;;;;;;;7.20;4.97;;;;;;;19.91;100.00;96528.91;5010538;28;102101;-61
2023/05/30 08:03:20;;;;;;;5.70;4.70;;;;;;;19.43;100.00;96529.72;5007179;28;104814;-61
2023/05/30 08:05:50;;;;;;;8.00;4.97;;;;;;;19.80;100.00;96524.03;4998848;28;105053;-61
2023/05/30 08:08:19;;;;;;;5.57;4.60;;;;;;;19.95;100.00;96537.19;5010874;28;101857;-61
2023/05/30 08:10:46;;;;;;;7.27;4.70;;;;;;;20.14;100.00;96535.94;5010921;28;105208;-61
2023/05/30 08:13:14;;;;;;;5.23;4.40;;;;;;;20.50;100.00;96533.16;5013143;28;105527;-60
2023/05/30 08:15:44;;;;;;;6.27;4.40;;;;;;;20.74;99.96;96541.69;5011028;28;104856;-62
2023/05/30 08:18:11;;;;;;;4.67;4.03;;;;;;;20.16;100.00;96535.63;5010150;28;102663;-60
2023/05/30 08:20:38;;;;;;;5.60;4.23;;;;;;;19.44;97.85;96534.81;5011830;28;101909;-60
2023/05/30 08:23:05;;;;;;;6.37;4.33;;;;;;;20.24;100.00;96537.59;5010425;28;105380;-60
2023/05/30 08:25:35;;;;;;;5.70;4.43;;;;;;;20.10;97.70;96536.88;5009847;28;105750;-61
2023/05/30 08:28:02;;;;;;;5.23;4.40;;;;;;;19.74;97.06;96536.06;5010521;28;101805;-61
2023/05/30 08:30:29;;;;;;;8.57;4.37;;;;;;;19.97;98.71;96532.25;5010754;28;104915;-61
2023/05/30 08:32:57;;;;;;;4.50;4.10;;;;;;;20.55;98.62;96528.41;5009715;28;105561;-61
2023/05/30 08:35:24;;;;;;;5.30;4.53;;;;;;;20.50;95.31;96530.44;5013857;28;101752;-61
2023/05/30 08:37:51;;;;;;;4.77;4.20;;;;;;;20.80;95.80;96532.34;5009963;28;105045;-61
2023/05/30 08:40:18;;;;;;;7.13;4.80;;;;;;;20.28;100.00;96528.53;5010731;28;102331;-61
2023/05/30 08:42:46;;;;;;;6.37;4.70;;;;;;;20.95;96.80;96527.38;5010960;28;102519;-60
2023/05/30 08:45:14;;;;;;;6.63;5.07;;;;;;;20.85;95.88;96535.72;5011290;28;102578;-60
2023/05/30 08:47:42;;;;;;;6.97;4.70;;;;;;;20.88;100.00;96526.97;5010783;28;101785;-61
2023/05/30 08:50:10;;;;;;;5.50;4.80;;;;;;;20.95;94.23;96521.16;5011658;28;102364;-61
2023/05/30 08:52:42;;;;;;;6.97;4.47;;;;;;;20.89;88.73;96534.03;5009745;28;102698;-62
2023/05/30 08:55:12;;;;;;;4.73;4.23;;;;;;;20.49;96.57;96534.25;5015656;28;101739;-61
2023/05/30 08:57:49;;;;;;;6.33;4.20;;;;;;;21.33;100.00;96530.34;5009972;28;103978;-61
2023/05/30 09:00:19;;;;;;;4.97;4.37;;;;;;;21.87;97.15;96529.81;5010255;28;101953;-61
2023/05/30 09:02:46;;;;;;;5.90;4.80;;;;;;;21.49;87.77;96526.06;5011214;28;102358;-61
2023/05/30 09:05:15;;;;;;;5.50;4.83;;;;;;;21.68;85.87;96526.63;5010728;28;103115;-61
2023/05/30 09:07:44;;;;;;;5.27;3.80;;;;;;;22.26;85.97;96522.31;5010151;28;102589;-61
2023/05/30 09:10:12;;;;;;;6.87;4.27;;;;;;;;;;5011215;28;102843;-61
2023/05/30 09:12:39;;;;;;;5.10;4.30;;;;;;;22.94;75.22;96529.50;5009408;28;105342;-61
2023/05/30 09:15:07;;;;;;;4.60;4.20;;;;;;;23.26;76.68;96521.56;5010663;28;104278;-62
2023/05/30 09:17:36;;;;;;;4.87;4.20;;;;;;;23.32;77.68;96530.31;5014295;28;102822;-61
2023/05/30 09:20:03;;;;;;;6.67;4.07;;;;;;;23.44;78.65;96523.03;5011219;28;102094;-61
2023/05/30 09:22:30;;;;;;;5.40;3.93;;;;;;;23.50;71.08;96529.91;5009602;28;105799;-61
2023/05/30 09:25:00;;;;;;;5.40;4.00;;;;;;;23.60;68.18;96526.78;5008881;28;105520;-61
2023/05/30 09:27:29;;;;;;;4.83;4.30;;;;;;;23.22;68.91;96526.03;5011516;28;101681;-61
2023/05/30 09:29:57;;;;;;;5.47;4.67;;;;;;;23.32;70.33;96524.91;5009355;28;104689;-61
2023/05/30 09:32:31;;;;;;;5.47;4.00;;;;;;;23.39;70.90;96519.72;5009311;28;105254;-61
2023/05/30 09:35:00;;;;;;;5.40;4.57;;;;;;;22.94;69.11;96519.44;5009420;28;102320;-61
2023/05/30 09:37:36;;;;;;;4.90;4.40;;;;;;;22.02;80.47;96516.56;5009641;28;103757;-61
2023/05/30 09:40:08;;;;;;;5.07;4.30;;;;;;;22.03;80.60;96515.50;5014055;28;103040;-61
2023/05/30 09:42:42;;;;;;;5.17;4.30;;;;;;;22.55;78.90;96506.19;5009309;28;105336;-61
2023/05/30 09:45:11;;;;;;;5.20;4.63;;;;;;;22.57;76.46;96512.06;5008927;28;103878;-61
2023/05/30 09:47:40;;;;;;;4.90;4.40;;;;;;;22.63;77.97;96518.13;5009435;28;101839;-61
2023/05/30 09:50:11;;;;;;;7.93;4.60;;;;;;;22.81;73.85;96509.59;5009159;28;104390;-61
2023/05/30 09:52:40;;;;;;;5.83;4.67;;;;;;;22.43;81.11;96516.84;5010306;28;102744;-61
2023/05/30 09:55:08;;;;;;;4.93;4.47;;;;;;;22.94;76.42;96515.94;5008100;28;102226;-61
2023/05/30 09:57:37;;;;;;;4.83;4.33;;;;;;;22.95;72.66;96515.59;5009323;28;103860;-61
2023/05/30 10:00:10;;;;;;;5.83;4.00;;;;;;;23.47;82.88;96511.53;5008286;28;105510;-61
2023/05/30 10:02:42;;;;;;;6.27;4.20;;;;;;;23.61;71.14;96516.72;5012615;28;101930;-61
2023/05/30 10:05:19;;;;;;;5.27;4.60;;;;;;;23.54;64.22;96513.75;5009407;28;103009;-61
2023/05/30 10:07:48;;;;;;;5.07;4.30;;;;;;;22.74;68.70;96511.22;5010827;28;101869;-61
2023/05/30 10:10:17;;;;;;;5.97;4.17;;;;;;;23.96;64.55;96507.22;5009145;28;103705;-61
2023/05/30 10:12:44;;;;;;;4.10;3.70;;;;;;;24.71;61.86;96510.34;5009813;28;102591;-62
2023/05/30 10:15:15;;;;;;;7.00;3.90;;;;;;;24.80;57.83;96499.38;5009299;28;101959;-61
2023/05/30 10:17:51;;;;;;;4.37;3.73;;;;;;;23.91;53.47;96504.69;5010131;28;102885;-61
2023/05/30 10:20:22;;;;;;;5.57;3.40;;;;;;;24.54;55.93;96498.84;5008079;28;105550;-61
2023/05/30 10:22:53;;;;;;;6.93;3.70;;;;;;;25.34;62.20;96495.34;5010518;28;101713;-61
2023/05/30 10:25:22;;;;;;;4.37;3.63;;;;;;;25.37;52.14;96489.22;5013263;28;102427;-61
2023/05/30 10:27:52;;;;;;;4.17;3.40;;;;;;;23.97;50.15;96493.31;5008696;28;101806;-61
2023/05/30 10:30:24;;;;;;;5.00;3.80;;;;;;;23.83;47.69;96492.75;5008645;28;105264;-61
2023/05/30 10:33:04;;;;;;;4.63;3.37;;;;;;;24.06;50.46;96490.50;5008122;28;105471;-61
2023/05/30 10:35:33;;;;;;;4.77;3.30;;;;;;;24.60;55.08;96483.91;5010137;28;101906;-61
2023/05/30 10:38:01;;;;;;;3.90;3.50;;;;;;;25.41;48.96;96481.94;5008852;28;105150;-61
2023/05/30 10:40:43;;;;;;;3.87;2.80;;;;;;;26.40;45.83;96491.91;5008223;28;105413;-61
2023/05/30 10:43:37;;;;;;;5.30;3.53;;;;;;;26.12;45.81;96483.75;5008362;28;101950;-61
2023/05/30 10:46:19;;;;;;;6.13;2.87;;;;;;;25.83;43.43;96483.25;5008685;28;104940;-61
2023/05/30 10:48:52;;;;;;;3.30;3.00;;;;;;;25.49;44.71;96479.09;5011134;28;101969;-61
2023/05/30 10:51:21;;;;;;;5.67;2.97;;;;;;;24.51;44.80;96485.91;5010104;28;102275;-61
2023/05/30 10:53:49;;;;;;;3.50;3.20;;;;;;;24.09;43.35;96484.41;5007330;28;105216;-61
2023/05/30 10:56:31;;;;;;;6.03;2.87;;;;;;;23.79;40.77;96475.53;5008568;28;102259;-61
2023/05/30 10:58:58;;;;;;;3.33;3.03;;;;;;;24.73;43.51;96469.22;5008366;28;105201;-61
2023/05/30 11:01:26;;;;;;;2.60;2.40;;;;;;;23.45;38.14;96475.00;5007550;28;105385;-61
2023/05/30 11:04:02;;;;;;;3.33;3.03;;;;;;;23.56;43.22;96478.91;5008394;28;101934;-61
2023/05/30 11:06:37;;;;;;;5.63;3.00;;;;;;;23.79;44.98;96463.88;5009328;28;102531;-61
2023/05/30 11:09:08;;;;;;;4.73;2.53;;;;;;;24.13;43.89;96482.63;5012202;28;102647;-61
2023/05/30 11:11:39;;;;;;;3.83;2.67;;;;;;;24.41;41.97;96468.09;5009487;28;102371;-61
2023/05/30 11:14:06;;;;;;;2.60;2.37;;;;;;;24.15;42.40;96477.66;5008221;28;103119;-61
2023/05/30 11:16:49;;;;;;;2.80;2.60;;;;;;;24.83;43.04;96472.28;5007281;28;101952;-61
2023/05/30 11:19:18;;;;;;;4.80;2.53;;;;;;;24.31;36.88;96476.66;5009273;28;102275;-61
2023/05/30 11:22:00;;;;;;;3.93;2.80;;;;;;;25.44;38.38;96464.94;5008158;28;102638;-61
2023/05/30 11:24:29;;;;;;;3.30;2.73;;;;;;;26.07;40.46;96472.28;5008272;28;102184;-61
2023/05/30 11:26:58;;;;;;;3.17;2.67;;;;;;;26.69;37.45;96467.78;5009588;28;102309;-61
2023/05/30 11:29:36;;;;;;;5.10;2.80;;;;;;;26.54;39.64;96462.28;5007126;28;104308;-61
2023/05/30 11:32:06;;;;;;;2.60;2.40;;;;;;;26.93;37.43;96464.09;5012568;28;102170;-61
2023/05/30 11:34:34;;;;;;;2.70;2.50;;;;;;;27.39;37.48;96457.81;5008053;28;103732;-61
2023/05/30 11:37:02;;;;;;;3.60;2.70;;;;;;;27.68;36.67;96460.03;5009474;28;101861;-61
2023/05/30 11:39:31;;;;;;;4.07;2.40;;;;;;;27.92;38.15;96468.81;5009058;28;102541;-61
2023/05/30 11:42:00;;;;;;;5.07;2.40;;;;;;;27.46;37.36;96458.75;5008633;28;102572;-61
2023/05/30 11:44:29;;;;;;;5.07;2.60;;;;;;;27.98;38.59;96469.28;5009294;28;102087;-61
2023/05/30 11:47:00;;;;;;;3.23;2.30;;;;;;;28.03;36.92;96455.34;5009254;28;102929;-61